Time;durP1;ratioP1;P1;durP2;ratioP2;P2;SDS_P1;SDS_P2;PMS_P1;PMS_P2;Temp;Humidity;BMP_temperature;BMP_pressure;BME280_temperature;BME280_humidity;BME280_pressure;Samples;Min_cycle;Max_cycle;Signal;HPM_P1;HPM_P2
2022/09/28 00:01:32;;;;;;;4.38;1.67;;;;;;;;;;5046665;28;20063;-68
2022/09/28 00:03:58;;;;;;;4.38;1.40;;;;;;;;;;5031468;28;20017;-68
2022/09/28 00:06:24;;;;;;;6.88;1.60;;;;;;;;;;5047517;28;20096;-67
2022/09/28 00:08:49;;;;;;;4.78;1.58;;;;;;;;;;5049364;28;20498;-69
2022/09/28 00:11:16;;;;;;;4.50;1.48;;;;;;;;;;5030604;28;20028;-69
2022/09/28 00:13:42;;;;;;;3.40;1.48;;;;;;;;;;5048920;28;20066;-68
2022/09/28 00:16:10;;;;;;;5.40;2.10;;;;;;;;;;5047632;28;20025;-68
2022/09/28 00:18:35;;;;;;;4.43;1.80;;;;;;;;;;5047349;28;20017;-71
2022/09/28 00:21:01;;;;;;;4.38;1.90;;;;;;;;;;5046343;28;20032;-67
2022/09/28 00:23:26;;;;;;;3.95;1.85;;;;;;;;;;5047043;28;20027;-67
2022/09/28 00:25:51;;;;;;;6.35;1.88;;;;;;;;;;5046972;28;20052;-69
2022/09/28 00:28:16;;;;;;;3.35;1.60;;;;;;;;;;5048289;28;20033;-69
2022/09/28 00:30:42;;;;;;;3.20;1.40;;;;;;;;;;5048332;28;20024;-68
2022/09/28 00:33:07;;;;;;;5.90;1.73;;;;;;;;;;5049153;28;20096;-71
2022/09/28 00:35:33;;;;;;;6.25;1.70;;;;;;;;;;5048195;28;20626;-69
2022/09/28 00:37:58;;;;;;;7.60;1.73;;;;;;;;;;5047317;28;20024;-69
2022/09/28 00:40:23;;;;;;;3.08;1.50;;;;;;;;;;5042200;28;20027;-68
2022/09/28 00:42:48;;;;;;;4.15;1.50;;;;;;;;;;5052104;28;20079;-69
2022/09/28 00:45:13;;;;;;;4.87;1.63;;;;;;;;;;5051723;28;20017;-69
2022/09/28 00:47:50;;;;;;;2.95;1.45;;;;;;;;;;5051568;28;20250;-66
2022/09/28 00:50:27;;;;;;;6.30;1.95;;;;;;;;;;5052057;28;20025;-65
2022/09/28 00:53:02;;;;;;;2.25;1.40;;;;;;;;;;5034151;28;20067;-67
2022/09/28 00:55:31;;;;;;;4.07;1.70;;;;;;;;;;5051677;28;20066;-69
2022/09/28 00:57:58;;;;;;;4.80;1.85;;;;;;;;;;5051593;28;20446;-68
2022/09/28 01:00:23;;;;;;;5.57;1.95;;;;;;;;;;5051920;28;20033;-66
2022/09/28 01:02:48;;;;;;;3.15;1.55;;;;;;;;;;5052175;28;20147;-69
2022/09/28 01:05:15;;;;;;;4.18;1.63;;;;;;;;;;5051876;28;20028;-66
2022/09/28 01:07:41;;;;;;;4.07;1.60;;;;;;;;;;5042461;28;20541;-67
2022/09/28 01:10:07;;;;;;;4.10;1.48;;;;;;;;;;5051400;28;20028;-68
2022/09/28 01:12:32;;;;;;;3.92;1.58;;;;;;;;;;5048725;28;20021;-69
2022/09/28 01:14:58;;;;;;;2.70;1.35;;;;;;;;;;5033132;28;20025;-68
2022/09/28 01:17:37;;;;;;;2.17;1.25;;;;;;;;;;5051046;28;20580;-68
2022/09/28 01:20:20;;;;;;;7.20;1.42;;;;;;;;;;5051800;28;20020;-70
2022/09/28 01:23:01;;;;;;;4.53;1.60;;;;;;;;;;5051635;28;20021;-68
2022/09/28 01:25:36;;;;;;;5.28;1.20;;;;;;;;;;5050853;28;20021;-69
2022/09/28 01:28:08;;;;;;;2.88;1.30;;;;;;;;;;5045191;28;20018;-69
2022/09/28 01:30:39;;;;;;;1.90;1.00;;;;;;;;;;5050369;28;20029;-70
2022/09/28 01:33:11;;;;;;;4.32;1.67;;;;;;;;;;5051378;28;20502;-67
2022/09/28 01:35:39;;;;;;;6.10;1.40;;;;;;;;;;5051245;28;20118;-69
2022/09/28 01:38:06;;;;;;;7.40;1.52;;;;;;;;;;5048865;28;20025;-69
2022/09/28 01:40:33;;;;;;;2.67;1.13;;;;;;;;;;5050655;28;20021;-68
2022/09/28 01:43:01;;;;;;;3.53;1.27;;;;;;;;;;5050422;28;20017;-70
2022/09/28 01:45:29;;;;;;;2.40;1.15;;;;;;;;;;5051127;28;20021;-69
2022/09/28 01:47:56;;;;;;;4.35;1.30;;;;;;;;;;5050669;28;20013;-67
2022/09/28 01:50:24;;;;;;;3.65;1.40;;;;;;;;;;5050410;28;20028;-69
2022/09/28 01:52:57;;;;;;;5.50;1.33;;;;;;;;;;5051157;28;20021;-67
2022/09/28 01:55:31;;;;;;;6.18;1.33;;;;;;;;;;5050173;28;20120;-69
2022/09/28 01:58:04;;;;;;;2.78;1.33;;;;;;;;;;5050345;28;20032;-66
2022/09/28 02:00:30;;;;;;;3.03;1.52;;;;;;;;;;5050734;28;20025;-67
2022/09/28 02:03:00;;;;;;;2.72;1.20;;;;;;;;;;5050276;28;20018;-69
2022/09/28 02:05:26;;;;;;;3.05;1.63;;;;;;;;;;5050769;28;20021;-68
2022/09/28 02:07:53;;;;;;;3.42;1.58;;;;;;;;;;5050272;28;20024;-68
2022/09/28 02:10:21;;;;;;;2.70;1.20;;;;;;;;;;5049965;28;20491;-67
2022/09/28 02:12:49;;;;;;;2.03;1.20;;;;;;;;;;5036740;28;20024;-66
2022/09/28 02:15:23;;;;;;;3.28;1.63;;;;;;;;;;5050561;28;20040;-67
2022/09/28 02:17:48;;;;;;;2.83;1.65;;;;;;;;;;5036727;28;20025;-68
2022/09/28 02:20:14;;;;;;;2.75;1.38;;;;;;;;;;5032271;28;20132;-70
2022/09/28 02:22:44;;;;;;;4.47;1.58;;;;;;;;;;5050392;28;20025;-67
2022/09/28 02:25:12;;;;;;;1.95;1.08;;;;;;;;;;5049612;28;20028;-66
2022/09/28 02:27:46;;;;;;;5.20;1.63;;;;;;;;;;5050062;28;20517;-69
2022/09/28 02:30:12;;;;;;;3.03;1.40;;;;;;;;;;5050088;28;20049;-69
2022/09/28 02:32:39;;;;;;;9.65;1.73;;;;;;;;;;5050573;28;20513;-68
2022/09/28 02:35:15;;;;;;;3.80;1.60;;;;;;;;;;5049058;28;20095;-69
2022/09/28 02:37:40;;;;;;;6.18;1.77;;;;;;;;;;5048655;28;20486;-69
2022/09/28 02:40:12;;;;;;;3.97;1.77;;;;;;;;;;5039138;28;20032;-68
2022/09/28 02:42:43;;;;;;;7.55;2.83;;;;;;;;;;5032018;28;20028;-68
2022/09/28 02:45:11;;;;;;;4.47;1.92;;;;;;;;;;5050030;28;20036;-68
2022/09/28 02:47:55;;;;;;;4.20;1.90;;;;;;;;;;5049650;28;20017;-68
2022/09/28 02:50:43;;;;;;;7.57;1.88;;;;;;;;;;5050128;28;20254;-70
2022/09/28 02:53:11;;;;;;;4.75;1.70;;;;;;;;;;5049307;28;20029;-67
2022/09/28 02:55:52;;;;;;;4.78;1.58;;;;;;;;;;5049296;28;20021;-68
2022/09/28 02:58:36;;;;;;;3.83;1.60;;;;;;;;;;5036073;28;20037;-68
2022/09/28 03:01:13;;;;;;;5.95;1.40;;;;;;;;;;5048921;28;20115;-69
2022/09/28 03:03:38;;;;;;;3.75;1.85;;;;;;;;;;5050162;28;20032;-70
2022/09/28 03:06:08;;;;;;;7.70;2.33;;;;;;;;;;5043943;28;20009;-69
2022/09/28 03:08:37;;;;;;;3.92;1.40;;;;;;;;;;5046481;28;20104;-70
2022/09/28 03:11:08;;;;;;;5.80;1.90;;;;;;;;;;5048687;28;20024;-68
2022/09/28 03:13:34;;;;;;;4.10;1.70;;;;;;;;;;5050188;28;20033;-69
2022/09/28 03:16:09;;;;;;;3.13;1.48;;;;;;;;;;5048704;28;20023;-67
2022/09/28 03:18:34;;;;;;;8.27;2.10;;;;;;;;;;5048640;28;20017;-69
2022/09/28 03:21:00;;;;;;;4.60;2.08;;;;;;;;;;5049395;28;20406;-67
2022/09/28 03:23:25;;;;;;;5.25;2.10;;;;;;;;;;5049321;28;20021;-69
2022/09/28 03:25:51;;;;;;;6.63;1.83;;;;;;;;;;5048571;28;20422;-69
2022/09/28 03:28:16;;;;;;;5.38;1.52;;;;;;;;;;5027713;28;20112;-69
2022/09/28 03:30:42;;;;;;;2.78;1.38;;;;;;;;;;5047300;28;20031;-68
2022/09/28 03:33:07;;;;;;;1.60;1.05;;;;;;;;;;5049225;28;20036;-67
2022/09/28 03:35:32;;;;;;;8.43;1.77;;;;;;;;;;5049576;28;20462;-66
2022/09/28 03:37:57;;;;;;;5.60;1.58;;;;;;;;;;5047785;28;20288;-68
2022/09/28 03:40:23;;;;;;;5.60;1.42;;;;;;;;;;5046553;28;20013;-66
2022/09/28 03:42:48;;;;;;;5.75;1.70;;;;;;;;;;5047425;28;20116;-70
2022/09/28 03:45:13;;;;;;;11.18;2.70;;;;;;;;;;5028556;28;20044;-65
2022/09/28 03:47:38;;;;;;;4.75;2.38;;;;;;;;;;5047371;28;20029;-69
2022/09/28 03:50:05;;;;;;;3.88;1.80;;;;;;;;;;5048418;28;20028;-71
2022/09/28 03:52:31;;;;;;;2.88;1.50;;;;;;;;;;5047113;28;20176;-73
2022/09/28 03:54:56;;;;;;;5.13;1.88;;;;;;;;;;5048044;28;20021;-68
2022/09/28 03:57:21;;;;;;;5.17;1.70;;;;;;;;;;5047208;28;20387;-68
2022/09/28 03:59:46;;;;;;;5.82;1.63;;;;;;;;;;5048287;28;20270;-69
2022/09/28 04:02:11;;;;;;;12.40;2.03;;;;;;;;;;5049180;28;20021;-66
2022/09/28 04:04:37;;;;;;;9.35;2.33;;;;;;;;;;5048802;28;20100;-69
2022/09/28 04:07:02;;;;;;;8.75;2.42;;;;;;;;;;5040186;28;20588;-68
2022/09/28 04:09:27;;;;;;;10.90;2.50;;;;;;;;;;5048533;28;20087;-70
2022/09/28 04:11:52;;;;;;;6.90;2.60;;;;;;;;;;5047780;28;20562;-68
2022/09/28 04:14:18;;;;;;;7.15;2.40;;;;;;;;;;5047740;28;20043;-68
2022/09/28 04:16:43;;;;;;;5.72;2.70;;;;;;;;;;5048018;28;20035;-71
2022/09/28 04:19:08;;;;;;;8.07;2.50;;;;;;;;;;5048894;28;20055;-68
2022/09/28 04:21:33;;;;;;;7.40;2.80;;;;;;;;;;5047503;28;20109;-72
2022/09/28 04:23:58;;;;;;;6.57;2.90;;;;;;;;;;5045117;28;20257;-69
2022/09/28 04:26:25;;;;;;;8.82;2.88;;;;;;;;;;5046866;28;20067;-67
2022/09/28 04:31:42;;;;;;;6.72;2.58;;;;;;;;;;5047571;28;20024;-70
2022/09/28 04:34:08;;;;;;;15.57;2.85;;;;;;;;;;5048528;28;20017;-65
2022/09/28 04:36:33;;;;;;;15.45;2.83;;;;;;;;;;5046924;28;20107;-67
2022/09/28 04:38:58;;;;;;;4.40;2.13;;;;;;;;;;5048221;28;20001;-68
2022/09/28 04:41:24;;;;;;;3.80;2.03;;;;;;;;;;5047161;28;20074;-69
2022/09/28 04:43:49;;;;;;;8.02;2.58;;;;;;;;;;5047683;28;20017;-69
2022/09/28 04:46:15;;;;;;;6.20;2.47;;;;;;;;;;5046469;28;20013;-67
2022/09/28 04:48:40;;;;;;;6.00;2.42;;;;;;;;;;5048311;28;20084;-68
2022/09/28 04:51:05;;;;;;;8.10;2.40;;;;;;;;;;5047570;28;20078;-69
2022/09/28 04:53:31;;;;;;;7.90;2.92;;;;;;;;;;5048287;28;20067;-70
2022/09/28 04:56:15;;;;;;;6.60;2.83;;;;;;;;;;5047558;28;20100;-67
2022/09/28 04:58:40;;;;;;;5.72;2.85;;;;;;;;;;5047463;28;20066;-68
2022/09/28 05:01:08;;;;;;;7.95;2.42;;;;;;;;;;5047235;28;20421;-68
2022/09/28 05:06:06;;;;;;;9.30;3.08;;;;;;;;;;5051522;28;20040;-67
2022/09/28 05:08:33;;;;;;;7.78;2.50;;;;;;;;;;5049429;28;20414;-68
2022/09/28 05:11:00;;;;;;;6.68;2.15;;;;;;;;;;5049831;28;20119;-70
2022/09/28 05:13:26;;;;;;;4.00;2.10;;;;;;;;;;5049589;28;20024;-67
2022/09/28 05:15:52;;;;;;;4.38;2.42;;;;;;;;;;5049154;28;20021;-68
2022/09/28 05:18:17;;;;;;;5.40;2.55;;;;;;;;;;5049401;28;20387;-68
2022/09/28 05:20:43;;;;;;;6.28;2.38;;;;;;;;;;5040363;28;20065;-67
2022/09/28 05:23:09;;;;;;;8.60;3.17;;;;;;;;;;5053467;28;20186;-67
2022/09/28 05:25:34;;;;;;;6.57;2.55;;;;;;;;;;5051663;28;20474;-68
2022/09/28 05:28:02;;;;;;;6.80;2.33;;;;;;;;;;5045874;28;20065;-68
2022/09/28 05:30:27;;;;;;;5.80;2.40;;;;;;;;;;5043420;28;20049;-67
2022/09/28 05:32:52;;;;;;;4.28;2.20;;;;;;;;;;5030383;28;20071;-69
2022/09/28 05:35:18;;;;;;;10.93;3.17;;;;;;;;;;5049486;28;20111;-67
2022/09/28 05:37:43;;;;;;;8.88;3.03;;;;;;;;;;5056797;28;20044;-67
2022/09/28 05:40:09;;;;;;;7.03;2.92;;;;;;;;;;5053988;28;20021;-68
2022/09/28 05:42:34;;;;;;;9.27;3.25;;;;;;;;;;5053788;28;20074;-66
2022/09/28 05:44:59;;;;;;;6.13;2.38;;;;;;;;;;5054192;28;20017;-67
2022/09/28 05:47:25;;;;;;;6.05;2.85;;;;;;;;;;5053305;28;20108;-67
2022/09/28 05:49:51;;;;;;;7.07;3.03;;;;;;;;;;5053136;28;20024;-67
2022/09/28 05:52:16;;;;;;;5.57;2.67;;;;;;;;;;5057815;28;20033;-66
2022/09/28 05:54:41;;;;;;;6.72;3.08;;;;;;;;;;5054664;28;20662;-70
2022/09/28 05:57:06;;;;;;;9.25;3.42;;;;;;;;;;5052737;28;20044;-67
2022/09/28 05:59:33;;;;;;;14.30;2.90;;;;;;;;;;5054006;28;20498;-68
2022/09/28 06:01:59;;;;;;;12.15;3.45;;;;;;;;;;5035487;28;20505;-70
2022/09/28 06:04:24;;;;;;;12.70;4.28;;;;;;;;;;5035795;28;20017;-66
2022/09/28 06:06:49;;;;;;;19.73;4.07;;;;;;;;;;5053673;28;20033;-67
2022/09/28 06:09:15;;;;;;;17.05;4.43;;;;;;;;;;5054550;28;20021;-66
2022/09/28 06:11:40;;;;;;;15.75;4.47;;;;;;;;;;5053277;28;20044;-69
2022/09/28 06:14:05;;;;;;;17.60;4.82;;;;;;;;;;5053932;28;20024;-67
2022/09/28 06:16:30;;;;;;;20.95;3.72;;;;;;;;;;5053331;28;20031;-67
2022/09/28 06:18:55;;;;;;;16.45;3.65;;;;;;;;;;5037178;28;20048;-66
2022/09/28 06:21:21;;;;;;;10.30;3.90;;;;;;;;;;5055584;28;20166;-67
2022/09/28 06:23:46;;;;;;;11.00;3.67;;;;;;;;;;5054801;28;20017;-66
2022/09/28 06:26:11;;;;;;;12.23;4.18;;;;;;;;;;5053804;28;20057;-68
2022/09/28 06:28:36;;;;;;;15.05;3.50;;;;;;;;;;5054267;28;20151;-67
2022/09/28 06:31:02;;;;;;;10.57;4.65;;;;;;;;;;5053725;28;20074;-66
2022/09/28 06:33:27;;;;;;;8.93;3.80;;;;;;;;;;5055078;28;20073;-67
2022/09/28 06:35:52;;;;;;;8.05;4.10;;;;;;;;;;5061509;28;20675;-66
2022/09/28 06:38:17;;;;;;;16.85;8.23;;;;;;;;;;5056949;28;20056;-66
2022/09/28 06:40:42;;;;;;;7.30;4.07;;;;;;;;;;5043921;28;20074;-65
2022/09/28 06:43:09;;;;;;;14.07;4.00;;;;;;;;;;5054096;28;20430;-67
2022/09/28 06:45:35;;;;;;;14.90;8.13;;;;;;;;;;5054591;28;20021;-65
2022/09/28 06:48:00;;;;;;;18.73;4.30;;;;;;;;;;5054323;28;20047;-68
2022/09/28 06:50:27;;;;;;;9.02;4.05;;;;;;;;;;5055352;28;20032;-66
2022/09/28 06:52:53;;;;;;;11.65;4.18;;;;;;;;;;5057442;28;20021;-68
2022/09/28 06:55:19;;;;;;;13.68;4.35;;;;;;;;;;5034958;28;20032;-66
2022/09/28 06:57:44;;;;;;;9.45;4.13;;;;;;;;;;5052371;28;20032;-68
2022/09/28 07:00:10;;;;;;;16.48;4.95;;;;;;;;;;5053312;28;20021;-69
2022/09/28 07:02:35;;;;;;;14.40;4.45;;;;;;;;;;5053586;28;20513;-68
2022/09/28 07:05:01;;;;;;;10.13;4.25;;;;;;;;;;5053104;28;20553;-69
2022/09/28 07:07:27;;;;;;;9.48;5.18;;;;;;;;;;5049154;28;20025;-66
2022/09/28 07:09:53;;;;;;;11.40;4.45;;;;;;;;;;5053683;28;20032;-68
2022/09/28 07:12:18;;;;;;;14.15;4.55;;;;;;;;;;5052418;28;20095;-68
2022/09/28 07:14:44;;;;;;;15.93;4.80;;;;;;;;;;5052952;28;20029;-67
2022/09/28 07:17:10;;;;;;;19.00;5.15;;;;;;;;;;5052671;28;20048;-69
2022/09/28 07:19:35;;;;;;;22.98;5.40;;;;;;;;;;5035113;28;20075;-67
2022/09/28 07:22:00;;;;;;;10.77;4.28;;;;;;;;;;5064807;28;20028;-66
2022/09/28 07:24:28;;;;;;;11.75;4.45;;;;;;;;;;5052578;28;20435;-68
2022/09/28 07:26:54;;;;;;;10.57;4.18;;;;;;;;;;5051984;28;20025;-69
2022/09/28 07:29:19;;;;;;;14.00;4.47;;;;;;;;;;5053239;28;20029;-68
2022/09/28 07:31:44;;;;;;;9.15;4.35;;;;;;;;;;5052627;28;20048;-68
2022/09/28 07:34:10;;;;;;;10.18;4.25;;;;;;;;;;5053101;28;20021;-69
2022/09/28 07:36:35;;;;;;;7.00;3.38;;;;;;;;;;5060131;28;20040;-68
2022/09/28 07:39:01;;;;;;;7.68;3.60;;;;;;;;;;5053045;28;20027;-67
2022/09/28 07:41:32;;;;;;;25.50;8.23;;;;;;;;;;5052564;28;20067;-69
2022/09/28 07:44:04;;;;;;;25.50;7.85;;;;;;;;;;5035277;28;20020;-70
2022/09/28 07:46:29;;;;;;;11.13;4.03;;;;;;;;;;5051402;28;20129;-67
2022/09/28 07:48:55;;;;;;;11.93;3.80;;;;;;;;;;5051605;28;20025;-68
2022/09/28 07:51:20;;;;;;;10.70;4.00;;;;;;;;;;5038616;28;20029;-68
2022/09/28 07:53:46;;;;;;;10.90;4.25;;;;;;;;;;5052624;28;20017;-68
2022/09/28 07:56:16;;;;;;;10.93;3.50;;;;;;;;;;5050860;28;20025;-67
2022/09/28 07:58:42;;;;;;;8.93;4.00;;;;;;;;;;5051935;28;20040;-67
2022/09/28 08:01:09;;;;;;;8.27;3.55;;;;;;;;;;5051259;28;20536;-70
2022/09/28 08:03:34;;;;;;;9.40;3.72;;;;;;;;;;5052371;28;20130;-66
2022/09/28 08:06:03;;;;;;;7.38;3.33;;;;;;;;;;5055078;28;20056;-68
2022/09/28 08:08:29;;;;;;;12.00;2.40;;;;;;;;;;5035674;28;20064;-67
2022/09/28 08:10:55;;;;;;;5.07;2.47;;;;;;;;;;5034521;28;20549;-66
2022/09/28 08:13:24;;;;;;;4.45;2.30;;;;;;;;;;5051496;28;20097;-67
2022/09/28 08:15:50;;;;;;;9.40;2.60;;;;;;;;;;5051286;28;20029;-66
2022/09/28 08:18:16;;;;;;;4.50;1.95;;;;;;;;;;5033059;28;20025;-68
2022/09/28 08:23:26;;;;;;;2.85;1.23;;;;;;;;;;4997569;28;20414;-65
2022/09/28 08:25:52;;;;;;;2.15;1.35;;;;;;;;;;5051927;28;20017;-69
2022/09/28 08:28:18;;;;;;;1.70;1.10;;;;;;;;;;5033620;28;20021;-66
2022/09/28 08:30:44;;;;;;;3.72;1.30;;;;;;;;;;5051330;28;20032;-67
2022/09/28 08:33:12;;;;;;;3.72;1.27;;;;;;;;;;5052878;28;20021;-67
2022/09/28 08:35:39;;;;;;;6.43;2.27;;;;;;;;;;5034606;28;20032;-65
2022/09/28 08:38:04;;;;;;;4.47;1.20;;;;;;;;;;5056996;28;20282;-66
2022/09/28 08:40:33;;;;;;;2.70;1.10;;;;;;;;;;5041442;28;20074;-66
2022/09/28 08:43:00;;;;;;;2.33;1.25;;;;;;;;;;5051219;28;20048;-68
2022/09/28 08:45:27;;;;;;;3.78;1.40;;;;;;;;;;5033640;28;20022;-67
2022/09/28 08:50:47;;;;;;;4.40;1.38;;;;;;;;;;5050484;28;20043;-69
2022/09/28 08:53:31;;;;;;;2.22;1.10;;;;;;;;;;5053572;28;20021;-67
2022/09/28 08:55:58;;;;;;;6.57;1.60;;;;;;;;;;5051413;28;20028;-67
2022/09/28 08:58:27;;;;;;;3.33;1.35;;;;;;;;;;5050634;28;20624;-66
2022/09/28 09:00:53;;;;;;;2.88;1.17;;;;;;;;;;5054319;28;20013;-67
2022/09/28 09:03:28;;;;;;;5.68;1.27;;;;;;;;;;5055113;28;20086;-68
2022/09/28 09:06:08;;;;;;;2.38;1.10;;;;;;;;;;5056059;28;20094;-66
2022/09/28 09:08:36;;;;;;;2.88;1.23;;;;;;;;;;5053620;28;20029;-71
2022/09/28 09:11:20;;;;;;;1.70;0.77;;;;;;;;;;5037381;28;20021;-67
2022/09/28 09:14:04;;;;;;;3.55;1.10;;;;;;;;;;5055167;28;20025;-70
2022/09/28 09:17:08;;;;;;;4.13;1.30;;;;;;;;;;5053953;28;20025;-66
2022/09/28 09:19:39;;;;;;;8.52;1.50;;;;;;;;;;4946163;29;20150;-66
2022/09/28 09:22:08;;;;;;;9.98;2.50;;;;;;;;;;4934971;29;20045;-68
2022/09/28 09:24:34;;;;;;;5.93;2.00;;;;;;;;;;4945391;29;20069;-67
2022/09/28 09:27:03;;;;;;;4.23;1.43;;;;;;;;;;4949066;29;20447;-66
2022/09/28 09:29:31;;;;;;;3.65;1.25;;;;;;;;;;4918942;29;20254;-68
2022/09/28 09:31:58;;;;;;;3.55;1.17;;;;;;;;;;4939136;29;20110;-65
2022/09/28 09:34:35;;;;;;;2.28;0.80;;;;;;;;;;4927807;29;20019;-68
2022/09/28 09:37:00;;;;;;;2.50;0.88;;;;;;;;;;4933918;29;20124;-66
2022/09/28 09:39:44;;;;;;;3.97;0.87;;;;;;;;;;4946751;29;20023;-67
2022/09/28 09:42:28;;;;;;;3.25;1.48;;;;;;;;;;4924388;29;20420;-66
2022/09/28 09:45:17;;;;;;;3.85;1.50;;;;;;;;;;4935358;29;20034;-65
2022/09/28 09:47:46;;;;;;;5.80;2.38;;;;;;;;;;4941086;29;20050;-69
2022/09/28 09:50:15;;;;;;;2.25;1.00;;;;;;;;;;4984017;28;20040;-68
2022/09/28 09:52:50;;;;;;;3.35;1.20;;;;;;;;;;5066195;28;20086;-68
2022/09/28 09:55:23;;;;;;;3.78;1.17;;;;;;;;;;5054129;28;20086;-67
2022/09/28 09:57:58;;;;;;;2.53;1.10;;;;;;;;;;5053376;28;20081;-66
2022/09/28 10:00:24;;;;;;;2.58;1.00;;;;;;;;;;5053992;28;20103;-68
2022/09/28 10:02:49;;;;;;;2.50;0.90;;;;;;;;;;5036339;28;20185;-70
2022/09/28 10:05:26;;;;;;;2.65;0.80;;;;;;;;;;5054286;28;20033;-68
2022/09/28 10:08:01;;;;;;;5.95;1.52;;;;;;;;;;5052826;28;20029;-68
2022/09/28 10:10:28;;;;;;;3.67;0.90;;;;;;;;;;5035581;28;20020;-68
2022/09/28 10:12:53;;;;;;;2.53;0.82;;;;;;;;;;5053765;28;20467;-66
2022/09/28 10:15:23;;;;;;;4.22;0.80;;;;;;;;;;5052673;28;20023;-68
2022/09/28 10:17:48;;;;;;;5.63;1.67;;;;;;;;;;5053661;28;20075;-67
2022/09/28 10:20:15;;;;;;;2.33;0.70;;;;;;;;;;5053428;28;20115;-67
2022/09/28 10:22:40;;;;;;;2.10;0.95;;;;;;;;;;5038731;28;20040;-69
2022/09/28 10:25:07;;;;;;;1.58;0.85;;;;;;;;;;5054190;28;20028;-67
2022/09/28 10:27:34;;;;;;;2.45;0.80;;;;;;;;;;5052731;28;20028;-67
2022/09/28 10:30:01;;;;;;;4.28;1.15;;;;;;;;;;5053451;28;20100;-69
2022/09/28 10:32:35;;;;;;;0.60;0.60;;;;;;;;;;5053629;28;20049;-68
2022/09/28 10:35:18;;;;;;;4.20;1.30;;;;;;;;;;5053738;28;20103;-68
2022/09/28 10:37:47;;;;;;;1.23;0.93;;;;;;;;;;5063247;28;20032;-67
2022/09/28 10:40:38;;;;;;;0.97;0.60;;;;;;;;;;5044754;28;20029;-68
2022/09/28 10:43:16;;;;;;;1.23;0.70;;;;;;;;;;5048004;28;20265;-66
2022/09/28 10:45:41;;;;;;;3.63;1.15;;;;;;;;;;5052810;28;20097;-69
2022/09/28 10:48:14;;;;;;;2.45;0.90;;;;;;;;;;5053015;28;20080;-67
2022/09/28 10:50:39;;;;;;;2.70;0.90;;;;;;;;;;5051635;28;20021;-68
2022/09/28 10:53:16;;;;;;;0.85;0.70;;;;;;;;;;5060937;28;20540;-66
2022/09/28 10:55:54;;;;;;;2.08;0.80;;;;;;;;;;5053744;28;20706;-68
2022/09/28 10:58:24;;;;;;;1.48;0.90;;;;;;;;;;5041822;28;20017;-66
2022/09/28 11:00:51;;;;;;;1.20;0.88;;;;;;;;;;5053169;28;20091;-67
2022/09/28 11:03:22;;;;;;;1.05;0.80;;;;;;;;;;5054141;28;20052;-66
2022/09/28 11:05:55;;;;;;;2.10;1.10;;;;;;;;;;5047316;22;20542;-66
2022/09/28 11:08:25;;;;;;;4.13;1.08;;;;;;;;;;5025219;28;20048;-68
2022/09/28 11:11:01;;;;;;;6.25;1.17;;;;;;;;;;5028617;28;20025;-68
2022/09/28 11:13:26;;;;;;;2.13;1.23;;;;;;;;;;5030010;28;20045;-69
2022/09/28 11:15:52;;;;;;;3.22;1.20;;;;;;;;;;5029010;28;20056;-67
2022/09/28 11:18:21;;;;;;;2.25;0.95;;;;;;;;;;5018061;28;20133;-69
2022/09/28 11:20:47;;;;;;;1.60;1.20;;;;;;;;;;5007912;28;20034;-67
2022/09/28 11:23:19;;;;;;;1.83;1.02;;;;;;;;;;5021259;28;20017;-70
2022/09/28 11:25:54;;;;;;;4.65;2.00;;;;;;;;;;5029275;28;20040;-68
2022/09/28 11:28:27;;;;;;;0.88;0.80;;;;;;;;;;5013710;28;20062;-68
2022/09/28 11:30:52;;;;;;;0.60;0.60;;;;;;;;;;5007315;28;20081;-68
2022/09/28 11:33:19;;;;;;;3.20;0.98;;;;;;;;;;5023243;28;20025;-67
2022/09/28 11:35:55;;;;;;;1.55;0.88;;;;;;;;;;5017219;28;20491;-67
2022/09/28 11:38:20;;;;;;;1.70;1.08;;;;;;;;;;5027661;28;20510;-71
2022/09/28 11:40:48;;;;;;;1.42;0.90;;;;;;;;;;5020182;28;20018;-68
2022/09/28 11:43:13;;;;;;;4.28;1.60;;;;;;;;;;5021715;28;20033;-68
2022/09/28 11:46:04;;;;;;;1.30;0.82;;;;;;;;;;5017554;28;20017;-68
2022/09/28 11:48:50;;;;;;;1.98;1.00;;;;;;;;;;5022315;28;20251;-68
2022/09/28 11:51:20;;;;;;;2.83;1.30;;;;;;;;;;5011947;28;20080;-66
2022/09/28 11:53:51;;;;;;;7.28;1.27;;;;;;;;;;5030015;28;20025;-65
2022/09/28 11:56:16;;;;;;;1.40;0.98;;;;;;;;;;5027466;28;20044;-68
2022/09/28 11:58:47;;;;;;;4.25;1.33;;;;;;;;;;5019292;28;20482;-67
2022/09/28 12:01:12;;;;;;;1.88;1.20;;;;;;;;;;5009175;28;20022;-67
2022/09/28 12:03:42;;;;;;;2.77;1.40;;;;;;;;;;5009512;28;20022;-67
2022/09/28 12:06:10;;;;;;;2.38;1.10;;;;;;;;;;5013453;28;20760;-67
2022/09/28 12:08:39;;;;;;;3.05;1.00;;;;;;;;;;5021661;28;20106;-69
2022/09/28 12:11:14;;;;;;;2.35;1.20;;;;;;;;;;5015726;28;20159;-68
2022/09/28 12:13:43;;;;;;;5.30;1.20;;;;;;;;;;5016994;28;20073;-69
2022/09/28 12:16:18;;;;;;;5.35;2.15;;;;;;;;;;5018109;28;20020;-68
2022/09/28 12:18:53;;;;;;;5.22;1.50;;;;;;;;;;5031302;28;20029;-69
2022/09/28 12:21:28;;;;;;;4.88;1.60;;;;;;;;;;5025620;28;20120;-67
2022/09/28 12:23:55;;;;;;;3.55;1.60;;;;;;;;;;5029094;28;20025;-68
2022/09/28 12:26:33;;;;;;;3.53;1.30;;;;;;;;;;5027945;28;20022;-69
2022/09/28 12:29:00;;;;;;;2.40;1.25;;;;;;;;;;5023411;28;20018;-67
2022/09/28 12:31:32;;;;;;;2.20;1.20;;;;;;;;;;5019628;28;20044;-69
2022/09/28 12:33:57;;;;;;;2.10;1.00;;;;;;;;;;5027215;28;20021;-69
2022/09/28 12:36:29;;;;;;;1.73;1.20;;;;;;;;;;5018719;28;20026;-71
2022/09/28 12:38:55;;;;;;;5.57;1.60;;;;;;;;;;5029086;28;20064;-68
2022/09/28 12:41:21;;;;;;;3.80;1.30;;;;;;;;;;5013144;28;20030;-68
2022/09/28 12:43:53;;;;;;;2.50;1.20;;;;;;;;;;5025128;28;20032;-68
2022/09/28 12:46:21;;;;;;;4.93;1.20;;;;;;;;;;5024721;28;20017;-69
2022/09/28 12:48:58;;;;;;;2.43;1.20;;;;;;;;;;5022177;28;20017;-69
2022/09/28 12:51:26;;;;;;;2.72;1.20;;;;;;;;;;5015127;28;20606;-67
2022/09/28 12:53:51;;;;;;;3.30;1.70;;;;;;;;;;5013007;28;20010;-71
2022/09/28 12:56:37;;;;;;;3.28;1.45;;;;;;;;;;5015360;28;20082;-68
2022/09/28 12:59:22;;;;;;;2.63;1.52;;;;;;;;;;5017925;28;20034;-68
2022/09/28 13:01:49;;;;;;;2.67;1.45;;;;;;;;;;5021570;28;20485;-71
2022/09/28 13:04:17;;;;;;;4.00;1.53;;;;;;;;;;5028628;28;20097;-68
2022/09/28 13:06:45;;;;;;;2.67;1.52;;;;;;;;;;5010295;28;20271;-70
2022/09/28 13:09:11;;;;;;;7.47;1.90;;;;;;;;;;5016194;28;20116;-68
2022/09/28 13:11:40;;;;;;;2.17;1.38;;;;;;;;;;5022430;28;20045;-68
2022/09/28 13:14:14;;;;;;;3.95;2.03;;;;;;;;;;5029700;28;20577;-68
2022/09/28 13:16:59;;;;;;;2.50;1.70;;;;;;;;;;5019477;28;20080;-70
2022/09/28 13:19:30;;;;;;;2.20;1.50;;;;;;;;;;5012133;28;20018;-67
2022/09/28 13:22:01;;;;;;;3.25;1.70;;;;;;;;;;5010544;28;20026;-66
2022/09/28 13:24:30;;;;;;;3.30;1.50;;;;;;;;;;5020460;28;20049;-68
2022/09/28 13:26:58;;;;;;;2.40;1.58;;;;;;;;;;5016882;28;20026;-67
2022/09/28 13:29:25;;;;;;;3.25;1.85;;;;;;;;;;5007999;28;20419;-71
2022/09/28 13:31:53;;;;;;;3.63;1.60;;;;;;;;;;5012577;28;20053;-67
2022/09/28 13:34:21;;;;;;;4.05;2.00;;;;;;;;;;5023069;28;20071;-69
2022/09/28 13:37:06;;;;;;;3.58;1.98;;;;;;;;;;5011247;28;20046;-69
2022/09/28 13:39:39;;;;;;;5.10;2.10;;;;;;;;;;5010873;28;20027;-70
2022/09/28 13:42:06;;;;;;;5.40;2.33;;;;;;;;;;5017699;28;20518;-69
2022/09/28 13:44:43;;;;;;;2.75;1.60;;;;;;;;;;5018095;28;20471;-67
2022/09/28 13:47:11;;;;;;;3.67;2.00;;;;;;;;;;5022535;28;20018;-68
2022/09/28 13:49:40;;;;;;;2.60;1.80;;;;;;;;;;5025236;28;20383;-67
2022/09/28 13:52:10;;;;;;;4.05;1.88;;;;;;;;;;5010917;28;20072;-70
2022/09/28 13:54:56;;;;;;;3.95;1.98;;;;;;;;;;5011950;28;20021;-70
2022/09/28 13:57:27;;;;;;;2.25;1.50;;;;;;;;;;4979714;28;20026;-71
2022/09/28 14:00:11;;;;;;;4.13;1.90;;;;;;;;;;5017433;28;20021;-68
2022/09/28 14:02:39;;;;;;;3.20;1.67;;;;;;;;;;5016417;28;20018;-70
2022/09/28 14:05:24;;;;;;;4.15;1.85;;;;;;;;;;5022458;28;20021;-71
2022/09/28 14:07:53;;;;;;;3.67;1.50;;;;;;;;;;5009505;28;20483;-70
2022/09/28 14:10:20;;;;;;;3.78;1.65;;;;;;;;;;5031119;28;20048;-70
2022/09/28 14:12:47;;;;;;;3.17;1.33;;;;;;;;;;5011540;28;20022;-68
2022/09/28 14:15:27;;;;;;;3.58;1.42;;;;;;;;;;5009612;28;20046;-69
2022/09/28 14:17:53;;;;;;;6.70;1.60;;;;;;;;;;5022732;28;20030;-69
2022/09/28 14:20:20;;;;;;;3.40;1.23;;;;;;;;;;5026562;28;20021;-70
2022/09/28 14:22:46;;;;;;;1.92;1.20;;;;;;;;;;5020496;28;20483;-70
2022/09/28 14:25:16;;;;;;;2.58;1.33;;;;;;;;;;5015368;28;20029;-70
2022/09/28 14:27:41;;;;;;;3.53;1.70;;;;;;;;;;5009574;28;20060;-71
2022/09/28 14:30:12;;;;;;;2.85;1.55;;;;;;;;;;5010467;28;20065;-69
2022/09/28 14:32:38;;;;;;;3.15;1.52;;;;;;;;;;5014253;28;20016;-70
2022/09/28 14:35:16;;;;;;;2.95;1.50;;;;;;;;;;5009901;28;20104;-71
2022/09/28 14:43:22;;;;;;;4.60;1.65;;;;;;;;;;5011452;28;20072;-72
2022/09/28 14:45:48;;;;;;;3.25;1.58;;;;;;;;;;5034372;28;20136;-72
2022/09/28 14:48:17;;;;;;;1.67;0.93;;;;;;;;;;5014646;28;20022;-67
2022/09/28 14:50:43;;;;;;;2.90;1.50;;;;;;;;;;5009817;28;20037;-70
2022/09/28 14:53:11;;;;;;;1.90;1.10;;;;;;;;;;5012392;28;20045;-72
2022/09/28 14:55:48;;;;;;;2.75;1.10;;;;;;;;;;5023152;28;20034;-69
2022/09/28 14:58:25;;;;;;;3.83;1.60;;;;;;;;;;5019867;28;20046;-70
2022/09/28 15:00:54;;;;;;;6.00;1.30;;;;;;;;;;5018485;28;20025;-72
2022/09/28 15:03:20;;;;;;;5.25;1.50;;;;;;;;;;5030334;28;20013;-72
2022/09/28 15:05:45;;;;;;;2.67;1.52;;;;;;;;;;5012405;28;20487;-70
2022/09/28 15:08:11;;;;;;;2.72;1.52;;;;;;;;;;5020734;28;20079;-70